Airfield :







YOU CAN JOIN US ON...

 
LOGIN :

Register | Disclaimer

   EN    FR    IT 

 









Legend :    VFR   Marginal VFR   IFR   Intensive IFR   Very Intensive IFR
Visi :
Ceiling :
>= 8 km
>= 3000ft
5 to 8 km
1000 to 3000 ft
1500m to 5 km
500 to 1000 ft
800 to 1500m
200 to 500 ft
< 800m
< 200 ft
Symbols :   Thunderstorms  Fog  Heavy snow  Heavy precipitations  Wind > 20 kt






- Airport Elevation : 193 ft
- IATA code : ZBF


CZBF - Bathurst

CURRENT METAR :
  • 212200Z AUTO 00000KT 9SM SCT100 07/06 A3017 RMK SLP220

EXPIRED METARs :
  • 212100Z AUTO 36004KT 9SM SCT100 09/07 A3016 RMK SLP216
  • 212000Z AUTO 03007KT 9SM CLR 11/06 A3013 RMK SLP207

TAF TAF CZBF
Valid from the 21 at 20:00 until the 22 at 03:00 UTC


211938Z 2120/2203 VRB03KT P6SM SCT100
TEMPO 2200/2203 3SM BR
PROB30 2202/2203 2SM BR BKN005 RMK FCST BASED ON AUTO OBS. NXT FCST WILL BE ISSUED AT 220845Z



MET'MAP, your aeronautical weather chart ! - Copyright ORBIFLY December 2007 - Disclaimer

ORBIFLY MET'MAP TEAM :

Programming & Development : Alexandra Zaïnal
Concept & Development : Baudouin d'Aumeries
Co-Development & Prog : Marc-Olivier Méhu
Technical & hardware support : Manuel Goepfert

Contact : metmap@orbifly.com




SOURCES & CREDITS :

   NOAA